Time;durP1;ratioP1;P1;durP2;ratioP2;P2;SDS_P1;SDS_P2;PMS_P1;PMS_P2;Temp;Humidity;BMP_temperature;BMP_pressure;BME280_temperature;BME280_humidity;BME280_pressure;Samples;Min_cycle;Max_cycle;Signal;HPM_P1;HPM_P2
2021/10/16 00:04:06;;;;;;;17.35;10.78;;;;;;;9.62;83.89;99196.22;4064597;86;21052;-83
2021/10/16 00:10:09;;;;;;;15.30;10.00;;;;;;;9.62;84.04;99197.59;4028883;87;21051;-82
2021/10/16 00:16:10;;;;;;;15.58;10.45;;;;;;;9.64;84.13;99208.16;4103856;85;21162;-82
2021/10/16 00:22:11;;;;;;;16.48;9.50;;;;;;;9.64;84.15;99212.25;4194545;83;21057;-82
2021/10/16 00:28:12;;;;;;;15.53;10.13;;;;;;;9.64;84.36;99224.55;4197425;83;21100;-83
2021/10/16 00:34:16;;;;;;;13.25;9.33;;;;;;;9.64;84.21;99223.19;4197456;83;21022;-82
2021/10/16 00:40:17;;;;;;;16.95;11.25;;;;;;;9.63;84.44;99219.69;4211273;81;94835;-81
2021/10/16 00:46:18;;;;;;;15.95;10.32;;;;;;;9.62;84.64;99226.85;4340965;81;21618;-82
2021/10/16 00:52:20;;;;;;;13.95;9.15;;;;;;;9.59;84.61;99244.78;4335584;81;21055;-84
2021/10/16 00:58:23;;;;;;;17.27;9.50;;;;;;;9.55;84.66;99248.03;4336799;81;21018;-82
2021/10/16 01:04:24;;;;;;;15.48;10.50;;;;;;;9.50;84.81;99236.02;4338780;81;21050;-82
2021/10/16 01:10:28;;;;;;;15.78;8.33;;;;;;;9.42;84.79;99239.77;4344107;81;21063;-82
2021/10/16 01:16:29;;;;;;;12.65;7.83;;;;;;;9.31;84.86;99240.13;4345615;80;21531;-83
2021/10/16 01:22:35;;;;;;;12.82;8.20;;;;;;;9.21;84.93;99251.06;4357765;80;21004;-82
2021/10/16 01:28:37;;;;;;;11.93;5.47;;;;;;;9.14;84.92;99255.03;4356278;80;21114;-82
2021/10/16 01:34:38;;;;;;;7.45;4.97;;;;;;;9.06;85.00;99253.30;4355395;80;21058;-81
2021/10/16 01:40:39;;;;;;;8.43;4.25;;;;;;;9.01;85.05;99260.40;4372328;80;21486;-83
2021/10/16 01:46:43;;;;;;;7.28;4.45;;;;;;;8.97;85.04;99259.52;4345129;80;21143;-82
2021/10/16 01:52:47;;;;;;;5.00;3.67;;;;;;;8.92;85.09;99261.19;4357734;80;21016;-83
2021/10/16 01:58:48;;;;;;;12.47;5.35;;;;;;;8.91;85.23;99268.37;4357593;80;21607;-82
2021/10/16 02:04:58;;;;;;;8.18;4.62;;;;;;;8.88;85.27;99271.81;4359560;80;21058;-82
2021/10/16 02:11:00;;;;;;;6.12;4.50;;;;;;;8.86;84.97;99272.73;4358995;80;21040;-81
2021/10/16 02:17:04;;;;;;;8.35;5.33;;;;;;;8.48;85.14;99278.08;4352580;80;21108;-82
2021/10/16 02:23:06;;;;;;;9.98;6.03;;;;;;;8.38;85.27;99279.41;4339268;80;21024;-82
2021/10/16 02:29:09;;;;;;;11.18;7.37;;;;;;;8.26;85.34;99287.70;4336140;80;20990;-81
2021/10/16 02:35:12;;;;;;;11.68;6.40;;;;;;;8.14;85.60;99296.50;4338568;80;21039;-81
2021/10/16 02:41:14;;;;;;;9.33;6.08;;;;;;;8.10;86.21;99298.36;4344060;80;20995;-80
2021/10/16 02:47:16;;;;;;;14.18;8.33;;;;;;;8.06;86.37;99300.19;4346211;80;21674;-82
2021/10/16 02:53:19;;;;;;;11.30;7.20;;;;;;;8.13;86.93;99311.30;4336691;80;21043;-81
2021/10/16 02:59:20;;;;;;;13.72;7.17;;;;;;;8.26;87.23;99320.98;4337749;80;21019;-82
2021/10/16 03:05:23;;;;;;;10.60;6.95;;;;;;;8.35;87.23;99327.08;4334738;80;21024;-82
2021/10/16 03:11:25;;;;;;;12.28;7.58;;;;;;;8.38;87.27;99325.78;4344981;80;21091;-82
2021/10/16 03:17:26;;;;;;;8.83;6.00;;;;;;;8.38;87.16;99321.69;4345493;80;21071;-82
2021/10/16 03:23:28;;;;;;;10.38;5.97;;;;;;;8.38;87.22;99330.47;4369909;80;21004;-82
2021/10/16 03:29:29;;;;;;;13.30;6.60;;;;;;;8.33;87.21;99336.18;4357319;80;20991;-84
2021/10/16 03:35:31;;;;;;;9.05;5.78;;;;;;;8.29;87.23;99341.54;4349194;80;21026;-81
2021/10/16 03:41:33;;;;;;;14.80;7.15;;;;;;;8.26;87.32;99345.53;4370810;80;21117;-81
2021/10/16 03:47:35;;;;;;;9.93;6.83;;;;;;;8.24;87.33;99345.11;4356708;80;21562;-82
2021/10/16 03:53:36;;;;;;;12.95;7.70;;;;;;;8.19;87.39;99355.66;4361477;80;21078;-82
2021/10/16 03:59:42;;;;;;;16.97;8.78;;;;;;;8.18;87.39;99355.44;4356439;80;21033;-81
2021/10/16 04:05:41;;;;;;;17.82;9.00;;;;;;;8.20;87.66;99354.53;4363668;80;21074;-81
2021/10/16 04:11:44;;;;;;;13.88;8.70;;;;;;;8.20;87.30;99352.36;4359875;80;21464;-81
2021/10/16 04:17:45;;;;;;;18.05;8.80;;;;;;;8.13;87.22;99354.33;4354443;80;21500;-81
2021/10/16 04:23:47;;;;;;;14.25;8.80;;;;;;;8.09;87.32;99357.55;4340424;80;21614;-81
2021/10/16 04:29:48;;;;;;;17.62;9.60;;;;;;;8.07;87.51;99361.75;4340360;80;21055;-81
2021/10/16 04:35:51;;;;;;;16.10;9.08;;;;;;;8.06;87.49;99361.53;4346902;80;21023;-81
2021/10/16 04:41:54;;;;;;;19.32;9.98;;;;;;;8.02;87.55;99370.20;4366517;80;21081;-80
2021/10/16 04:47:55;;;;;;;15.50;8.98;;;;;;;7.97;87.44;99365.20;4355291;80;21469;-81
2021/10/16 04:53:57;;;;;;;18.02;9.98;;;;;;;7.78;87.54;99366.42;4344799;80;21082;-82
2021/10/16 04:59:58;;;;;;;17.77;11.73;;;;;;;7.72;87.88;99362.96;4328188;80;21750;-81
2021/10/16 05:06:01;;;;;;;20.48;11.68;;;;;;;7.76;88.18;99368.73;4311603;80;30598;-82
2021/10/16 05:12:03;;;;;;;20.10;12.82;;;;;;;7.87;88.37;99378.55;4139802;82;21114;-81
2021/10/16 05:18:05;;;;;;;37.38;19.48;;;;;;;7.92;88.33;99384.53;4152575;83;21070;-81
2021/10/16 05:24:10;;;;;;;26.23;15.55;;;;;;;7.98;88.35;99402.25;4124842;84;21102;-82
2021/10/16 05:30:13;;;;;;;18.02;11.22;;;;;;;8.05;88.30;99406.31;4124075;84;21056;-81
2021/10/16 05:36:21;;;;;;;16.17;9.60;;;;;;;8.03;88.17;99401.20;4124368;84;21896;-82
2021/10/16 05:42:23;;;;;;;20.68;10.38;;;;;;;7.88;87.84;99416.92;4130077;84;21081;-80
2021/10/16 05:48:24;;;;;;;18.17;10.23;;;;;;;7.87;88.47;99416.72;4129939;84;21114;-82
2021/10/16 05:54:27;;;;;;;20.45;11.00;;;;;;;8.01;88.70;99418.47;4108874;85;21053;-82
2021/10/16 06:00:29;;;;;;;18.67;10.68;;;;;;;8.05;88.14;99427.53;4109823;84;21090;-81
2021/10/16 06:06:31;;;;;;;20.05;11.12;;;;;;;8.12;88.38;99433.75;3986931;88;21102;-82
2021/10/16 06:12:32;;;;;;;21.75;11.00;;;;;;;8.19;88.50;99444.28;4021589;87;21023;-82
2021/10/16 06:18:33;;;;;;;19.17;10.00;;;;;;;8.28;88.49;99449.06;4001998;86;21064;-81
2021/10/16 06:24:35;;;;;;;18.25;9.43;;;;;;;8.36;88.40;99456.86;4049128;85;21618;-81
2021/10/16 06:30:37;;;;;;;15.48;10.15;;;;;;;8.34;87.94;99453.69;4093348;85;21590;-80
2021/10/16 06:36:39;;;;;;;17.20;10.32;;;;;;;8.20;88.17;99468.27;4095132;85;21091;-80
2021/10/16 06:42:40;;;;;;;20.95;10.75;;;;;;;8.20;88.15;99469.06;4097009;85;21627;-80
2021/10/16 06:49:02;;;;;;;21.73;9.95;;;;;;;8.20;88.38;99479.98;4085304;85;21017;-82
2021/10/16 06:55:06;;;;;;;16.67;9.55;;;;;;;8.34;88.57;99472.22;4094948;85;21689;-83
2021/10/16 07:01:08;;;;;;;17.17;9.58;;;;;;;8.59;88.70;99475.60;4100161;85;21539;-81
2021/10/16 07:07:13;;;;;;;15.35;9.75;;;;;;;8.90;88.57;99480.52;4092377;85;21130;-82
2021/10/16 07:13:17;;;;;;;15.30;10.13;;;;;;;8.98;88.15;99482.29;4092146;85;21046;-80
2021/10/16 07:19:22;;;;;;;17.17;10.15;;;;;;;9.04;88.31;99484.17;4093334;85;21693;-81
2021/10/16 07:25:22;;;;;;;19.70;10.95;;;;;;;9.04;88.04;99484.97;4080885;85;21041;-81
2021/10/16 07:31:29;;;;;;;17.50;10.43;;;;;;;9.19;87.91;99491.58;4073139;85;21030;-81
2021/10/16 07:37:27;;;;;;;16.50;9.90;;;;;;;9.30;88.08;99499.47;4078639;84;21388;-81
2021/10/16 07:43:28;;;;;;;22.50;11.08;;;;;;;9.45;88.03;99504.91;4076814;85;21071;-82
2021/10/16 07:49:29;;;;;;;21.65;11.83;;;;;;;9.66;87.85;99514.17;4078942;85;21555;-82
2021/10/16 07:55:31;;;;;;;15.05;9.78;;;;;;;9.82;87.41;99516.87;4078196;85;21633;-82
2021/10/16 08:01:32;;;;;;;16.15;8.65;;;;;;;9.92;86.75;99518.46;4077035;85;21500;-82
2021/10/16 08:07:33;;;;;;;15.80;8.18;;;;;;;10.06;86.65;99517.97;4081923;85;21144;-82
2021/10/16 08:13:36;;;;;;;15.85;8.05;;;;;;;10.10;86.14;99521.02;4076155;85;21057;-82
2021/10/16 08:19:37;;;;;;;17.12;8.70;;;;;;;10.15;86.19;99528.95;4044439;86;21027;-81
2021/10/16 08:25:39;;;;;;;17.37;8.58;;;;;;;10.23;86.00;99533.98;4129191;84;21638;-82
2021/10/16 08:31:40;;;;;;;19.02;10.95;;;;;;;10.26;85.87;99536.00;4127152;84;21088;-84
2021/10/16 08:37:42;;;;;;;24.00;10.68;;;;;;;10.31;85.51;99537.09;4133660;84;22292;-83
2021/10/16 08:43:43;;;;;;;23.50;12.68;;;;;;;10.43;85.34;99530.90;4130417;84;21042;-83
2021/10/16 08:49:45;;;;;;;14.70;8.90;;;;;;;10.86;85.01;99536.63;4133155;84;21146;-84
2021/10/16 08:55:51;;;;;;;15.20;8.85;;;;;;;11.13;84.57;99534.95;4130598;84;21068;-82
2021/10/16 09:02:03;;;;;;;12.45;6.65;;;;;;;11.64;84.03;99533.27;4133246;84;21109;-82
2021/10/16 09:08:04;;;;;;;13.55;7.00;;;;;;;11.62;83.09;99530.86;4133216;84;21536;-82
2021/10/16 09:14:11;;;;;;;15.95;7.22;;;;;;;11.87;82.97;99534.79;4128196;84;21028;-81
2021/10/16 09:20:14;;;;;;;11.88;6.58;;;;;;;12.00;82.42;99541.66;4124503;84;21403;-80
2021/10/16 09:26:15;;;;;;;15.95;7.58;;;;;;;12.24;82.05;99548.06;4130057;84;21543;-82
2021/10/16 09:32:23;;;;;;;17.60;6.60;;;;;;;12.68;80.60;99546.23;4128739;84;21108;-81
2021/10/16 09:38:40;;;;;;;15.75;6.67;;;;;;;12.53;80.60;99555.48;4118161;84;21614;-81
2021/10/16 09:44:47;;;;;;;10.95;5.80;;;;;;;12.35;80.04;99555.06;4137919;84;21049;-82
2021/10/16 09:51:01;;;;;;;13.03;6.30;;;;;;;12.23;79.53;99554.70;4127821;84;21036;-82
2021/10/16 09:57:08;;;;;;;18.95;7.12;;;;;;;12.11;79.15;99550.83;4134332;84;22006;-83
2021/10/16 10:03:13;;;;;;;15.08;7.42;;;;;;;12.12;78.52;99558.48;4127783;83;21050;-81
2021/10/16 10:09:16;;;;;;;14.05;6.62;;;;;;;12.09;78.22;99555.11;4125947;84;21550;-81
2021/10/16 10:15:19;;;;;;;14.13;7.47;;;;;;;11.96;77.71;99555.91;4131343;84;21630;-82
2021/10/16 10:21:22;;;;;;;14.95;8.28;;;;;;;11.75;77.75;99554.78;4137488;84;21123;-82
2021/10/16 10:27:25;;;;;;;20.55;9.63;;;;;;;11.67;77.59;99557.20;4124763;84;21122;-83
2021/10/16 10:33:29;;;;;;;17.52;8.68;;;;;;;11.69;77.58;99561.18;4131838;84;21102;-82
2021/10/16 10:39:38;;;;;;;15.78;7.95;;;;;;;11.62;77.13;99551.42;4129967;84;21076;-81
2021/10/16 10:45:40;;;;;;;17.57;8.85;;;;;;;11.61;77.10;99552.59;4109640;85;21037;-81
2021/10/16 10:51:42;;;;;;;19.30;8.83;;;;;;;11.54;77.05;99548.36;4109538;85;21078;-81
2021/10/16 10:57:52;;;;;;;17.27;9.58;;;;;;;11.41;76.91;99542.08;4108576;85;21033;-82
2021/10/16 11:04:02;;;;;;;22.73;12.13;;;;;;;11.27;76.94;99546.75;4112461;85;21364;-82
2021/10/16 11:10:06;;;;;;;20.15;11.05;;;;;;;11.33;76.84;99539.80;4111016;85;21521;-81
2021/10/16 11:16:11;;;;;;;21.35;10.72;;;;;;;11.48;76.99;99540.23;4111074;85;21690;-82
2021/10/16 11:22:12;;;;;;;18.40;10.45;;;;;;;11.55;76.77;99529.39;4083128;85;21061;-82
2021/10/16 11:28:14;;;;;;;25.32;11.53;;;;;;;11.56;76.43;99530.97;4080617;85;21651;-81
2021/10/16 11:34:15;;;;;;;17.92;10.10;;;;;;;11.47;76.17;99534.55;4081960;85;21563;-82
2021/10/16 11:40:24;;;;;;;21.10;11.08;;;;;;;11.40;75.99;99519.34;4079484;85;21505;-81
2021/10/16 11:46:25;;;;;;;19.10;10.75;;;;;;;11.40;75.67;99520.72;4076711;85;21614;-82
2021/10/16 11:52:27;;;;;;;24.92;13.80;;;;;;;11.30;75.49;99518.61;4074539;85;21013;-80
2021/10/16 11:58:30;;;;;;;24.82;13.05;;;;;;;11.19;75.35;99522.32;4078156;85;21542;-82
2021/10/16 12:04:32;;;;;;;20.23;11.78;;;;;;;11.15;75.53;99520.11;4080859;85;21087;-81
2021/10/16 12:10:36;;;;;;;21.95;11.48;;;;;;;11.10;75.09;99514.37;4077330;85;21080;-81
2021/10/16 12:16:41;;;;;;;18.70;10.60;;;;;;;11.08;74.97;99509.81;4073613;85;21025;-82
2021/10/16 12:22:55;;;;;;;16.42;9.88;;;;;;;11.12;74.97;99505.78;4076700;85;21898;-81
2021/10/16 12:28:59;;;;;;;22.25;10.55;;;;;;;11.20;74.89;99500.63;4076996;85;21512;-81
2021/10/16 12:35:03;;;;;;;19.77;11.90;;;;;;;11.21;74.87;99495.35;4072998;85;21092;-81
2021/10/16 12:41:03;;;;;;;21.80;11.05;;;;;;;11.20;74.64;99504.14;4081826;85;21029;-82
2021/10/16 12:47:15;;;;;;;17.30;9.95;;;;;;;11.09;74.46;99487.53;4079365;85;21075;-83
2021/10/16 12:53:17;;;;;;;17.70;10.05;;;;;;;11.07;74.24;99491.81;4080512;85;21047;-81
2021/10/16 12:59:18;;;;;;;19.40;11.78;;;;;;;11.03;74.09;99486.83;4078230;85;21087;-83
2021/10/16 13:05:22;;;;;;;16.95;10.40;;;;;;;11.06;74.48;99487.47;4080514;85;21049;-83
2021/10/16 13:11:23;;;;;;;21.07;9.38;;;;;;;11.16;74.56;99494.28;4077319;85;21080;-82
2021/10/16 13:17:24;;;;;;;19.20;8.08;;;;;;;11.20;74.14;99491.05;4077783;85;21067;-82
2021/10/16 13:23:26;;;;;;;14.58;6.50;;;;;;;11.19;73.90;99492.98;4076703;85;21130;-83
2021/10/16 13:29:27;;;;;;;13.25;6.90;;;;;;;11.21;73.81;99496.72;4194871;82;21072;-83
2021/10/16 13:35:29;;;;;;;16.32;7.08;;;;;;;11.23;73.64;99494.42;4177343;82;21036;-81
2021/10/16 13:41:31;;;;;;;12.55;6.70;;;;;;;11.20;73.32;99486.93;4174934;82;21033;-82
2021/10/16 13:47:33;;;;;;;15.28;6.97;;;;;;;11.20;73.38;99483.59;4117943;85;21052;-82
2021/10/16 13:53:35;;;;;;;14.98;6.62;;;;;;;11.25;73.81;99480.55;4183250;82;21479;-82
2021/10/16 13:59:36;;;;;;;17.52;6.55;;;;;;;11.39;73.57;99477.23;4182682;82;21576;-82
2021/10/16 14:05:37;;;;;;;15.53;6.37;;;;;;;11.37;73.00;99480.34;4192462;82;21560;-82
2021/10/16 14:11:38;;;;;;;15.95;7.25;;;;;;;11.37;72.86;99473.48;4196116;82;21001;-82
2021/10/16 14:17:39;;;;;;;17.48;7.30;;;;;;;11.34;73.19;99470.11;4073973;85;21067;-82
2021/10/16 14:23:41;;;;;;;21.50;7.87;;;;;;;11.27;73.38;99476.87;4207728;83;21532;-82
2021/10/16 14:29:42;;;;;;;80.20;22.77;;;;;;;11.21;73.11;99480.28;4193163;82;21061;-82
2021/10/16 14:35:43;;;;;;;38.17;12.23;;;;;;;11.09;72.61;99486.73;4192267;83;21473;-83
2021/10/16 14:41:45;;;;;;;34.38;17.05;;;;;;;10.99;72.51;99490.87;4207617;82;22051;-82
2021/10/16 14:47:47;;;;;;;24.25;10.60;;;;;;;10.89;72.49;99482.48;4199783;82;21056;-84
2021/10/16 14:53:48;;;;;;;20.43;8.60;;;;;;;10.75;72.62;99491.25;4209163;82;21082;-82
2021/10/16 14:59:49;;;;;;;20.37;9.33;;;;;;;10.64;72.72;99497.10;4203917;83;21075;-82
2021/10/16 15:05:52;;;;;;;15.65;8.05;;;;;;;10.58;72.87;99491.72;4190262;82;21119;-83
2021/10/16 15:11:53;;;;;;;16.80;7.65;;;;;;;10.53;73.08;99497.48;4183986;82;21546;-84
2021/10/16 15:17:55;;;;;;;19.77;7.70;;;;;;;10.48;73.11;99496.40;4197085;82;21023;-82
2021/10/16 15:23:56;;;;;;;18.17;7.37;;;;;;;10.43;73.54;99493.95;4193184;82;21194;-83
2021/10/16 15:29:58;;;;;;;17.27;7.35;;;;;;;10.42;73.79;99497.05;4182534;83;21013;-83
2021/10/16 15:35:59;;;;;;;16.55;7.92;;;;;;;10.37;73.83;99497.33;4192618;82;21116;-82
2021/10/16 15:42:03;;;;;;;16.35;7.58;;;;;;;10.34;73.78;99507.64;4182041;82;21079;-82
2021/10/16 15:48:06;;;;;;;18.90;8.35;;;;;;;10.28;73.80;99503.61;4195421;82;21533;-82
2021/10/16 15:54:08;;;;;;;20.48;8.38;;;;;;;10.24;74.01;99506.86;4197345;82;21077;-82
2021/10/16 16:00:11;;;;;;;20.30;9.13;;;;;;;10.15;74.05;99512.53;4135653;84;21006;-82
2021/10/16 16:06:12;;;;;;;22.37;9.10;;;;;;;10.10;74.12;99516.14;4202481;82;21935;-81
2021/10/16 16:12:14;;;;;;;18.23;9.00;;;;;;;10.04;74.74;99527.90;4199993;82;21027;-81
2021/10/16 16:18:16;;;;;;;18.65;8.63;;;;;;;9.98;74.66;99538.10;4207021;83;21083;-83
2021/10/16 16:24:17;;;;;;;20.88;10.45;;;;;;;9.85;75.68;99538.80;4173143;83;21036;-82
2021/10/16 16:30:18;;;;;;;24.37;10.20;;;;;;;9.84;75.62;99544.06;4186456;82;21133;-84
2021/10/16 16:36:20;;;;;;;25.48;10.88;;;;;;;9.82;76.43;99559.25;4186491;82;21091;-82
2021/10/16 16:42:21;;;;;;;26.00;11.28;;;;;;;9.79;76.63;99558.00;4183512;83;21521;-82
2021/10/16 16:48:22;;;;;;;33.67;11.80;;;;;;;9.78;76.59;99563.27;4184478;83;21148;-81
2021/10/16 16:54:24;;;;;;;25.92;11.93;;;;;;;9.74;77.11;99566.47;4188228;82;21001;-81
2021/10/16 17:00:25;;;;;;;77.67;28.40;;;;;;;9.69;77.44;99571.44;4183057;83;21005;-81
2021/10/16 17:06:26;;;;;;;54.80;23.00;;;;;;;9.66;77.45;99577.05;4179040;83;21089;-82
2021/10/16 17:12:28;;;;;;;47.58;24.98;;;;;;;9.67;77.48;99583.29;4203802;82;21029;-82
2021/10/16 17:18:29;;;;;;;34.23;17.48;;;;;;;9.64;77.71;99585.37;4191262;82;21074;-83
2021/10/16 17:24:31;;;;;;;38.23;18.45;;;;;;;9.61;78.24;99591.55;4201526;82;21082;-82
2021/10/16 17:30:32;;;;;;;37.20;19.27;;;;;;;9.53;78.34;99593.31;4210178;82;21078;-82
2021/10/16 17:36:35;;;;;;;40.63;19.32;;;;;;;9.45;78.55;99599.19;4218202;82;21028;-82
2021/10/16 17:42:36;;;;;;;37.28;18.82;;;;;;;9.47;79.00;99598.83;4209518;82;21658;-81
2021/10/16 17:48:40;;;;;;;41.58;18.90;;;;;;;9.32;78.46;99600.41;4214200;82;21076;-84
2021/10/16 17:54:41;;;;;;;41.77;19.30;;;;;;;9.26;78.50;99601.81;4202573;82;21556;-82
2021/10/16 18:00:43;;;;;;;36.75;18.80;;;;;;;9.09;77.93;99614.44;4193813;82;21070;-83
2021/10/16 18:06:44;;;;;;;42.20;17.92;;;;;;;8.99;78.38;99614.17;4191183;82;21059;-81
2021/10/16 18:12:46;;;;;;;46.95;19.95;;;;;;;8.80;78.12;99610.70;4198555;82;21071;-82
2021/10/16 18:18:47;;;;;;;45.15;20.62;;;;;;;8.50;78.31;99609.48;4078772;81;9999955;-82
2021/10/16 18:24:48;;;;;;;52.62;26.68;;;;;;;8.47;78.80;99609.38;4170869;83;21055;-81
2021/10/16 18:30:50;;;;;;;44.13;23.57;;;;;;;8.38;78.84;99620.41;4176420;82;21065;-82
2021/10/16 18:36:51;;;;;;;49.60;26.97;;;;;;;8.26;79.08;99619.64;4185394;82;21043;-82
2021/10/16 18:42:53;;;;;;;54.67;26.65;;;;;;;8.06;79.27;99613.19;4183439;82;21044;-83
2021/10/16 18:48:54;;;;;;;62.98;29.15;;;;;;;7.87;79.58;99614.34;4174293;83;21151;-82
2021/10/16 18:54:55;;;;;;;61.60;28.10;;;;;;;7.65;79.66;99619.69;4183093;82;21885;-81
2021/10/16 19:00:57;;;;;;;48.02;23.52;;;;;;;7.39;79.86;99619.19;4184511;83;21115;-81
2021/10/16 19:06:59;;;;;;;62.88;32.38;;;;;;;7.12;79.49;99627.20;4185308;82;21412;-82
2021/10/16 19:13:01;;;;;;;69.15;34.58;;;;;;;6.76;80.21;99630.61;4187383;82;21071;-81
2021/10/16 19:19:02;;;;;;;69.58;36.33;;;;;;;6.72;80.73;99628.31;4181662;82;21056;-82
2021/10/16 19:25:06;;;;;;;67.97;34.67;;;;;;;6.63;80.71;99634.95;4107815;82;21143;-82
2021/10/16 19:31:07;;;;;;;73.72;36.35;;;;;;;6.49;81.03;99624.91;4079261;85;21002;-82
2021/10/16 19:37:08;;;;;;;69.15;34.78;;;;;;;6.35;81.09;99624.64;4084749;85;21063;-82
2021/10/16 19:43:10;;;;;;;63.85;32.53;;;;;;;6.18;80.93;99626.13;4079814;85;21508;-81
2021/10/16 19:49:11;;;;;;;66.87;33.28;;;;;;;5.97;81.41;99629.92;4085517;85;21475;-82
2021/10/16 19:55:13;;;;;;;67.75;33.92;;;;;;;5.73;81.62;99631.08;4093532;85;22261;-83
2021/10/16 20:01:14;;;;;;;78.05;36.33;;;;;;;5.62;81.58;99625.78;4081977;85;21700;-82
2021/10/16 20:07:15;;;;;;;68.25;33.58;;;;;;;5.50;82.07;99628.37;4081753;85;21036;-82
2021/10/16 20:13:16;;;;;;;70.12;34.13;;;;;;;5.38;82.00;99626.91;4077610;85;21012;-81
2021/10/16 20:19:18;;;;;;;68.33;32.65;;;;;;;5.25;82.39;99623.28;4080636;85;21099;-81
2021/10/16 20:25:19;;;;;;;74.35;35.55;;;;;;;5.14;82.75;99632.90;4178290;82;21075;-81
2021/10/16 20:31:23;;;;;;;63.00;30.82;;;;;;;5.12;83.06;99629.70;4203911;83;21598;-81
2021/10/16 20:37:24;;;;;;;69.92;32.78;;;;;;;5.12;83.39;99618.84;4204244;82;21689;-81
2021/10/16 20:43:25;;;;;;;64.15;30.80;;;;;;;5.06;83.49;99624.80;4195212;83;21055;-81
2021/10/16 20:49:27;;;;;;;68.15;33.75;;;;;;;5.06;84.57;99619.37;4199562;82;21639;-80
2021/10/16 20:55:28;;;;;;;73.07;36.25;;;;;;;5.29;84.68;99618.82;4201529;82;21035;-81
2021/10/16 21:01:31;;;;;;;64.55;34.10;;;;;;;5.17;83.66;99612.47;4212170;82;20983;-81
2021/10/16 21:07:32;;;;;;;79.25;37.83;;;;;;;4.98;83.84;99612.05;4205625;82;21377;-80
2021/10/16 21:13:34;;;;;;;99.25;43.28;;;;;;;4.94;84.08;99615.95;4193668;82;21547;-82
2021/10/16 21:19:35;;;;;;;80.60;40.17;;;;;;;4.75;84.20;99616.31;4203620;82;21064;-81
2021/10/16 21:25:36;;;;;;;94.50;44.25;;;;;;;4.51;83.86;99613.88;4192890;82;22023;-81
2021/10/16 21:31:38;;;;;;;87.20;43.08;;;;;;;4.28;85.21;99612.42;4175720;83;21079;-81
2021/10/16 21:37:40;;;;;;;96.87;44.25;;;;;;;4.28;85.18;99617.84;4024082;85;21610;-81
2021/10/16 21:43:43;;;;;;;93.22;42.98;;;;;;;4.28;84.87;99617.84;4052849;85;21649;-81
2021/10/16 21:49:47;;;;;;;85.47;41.33;;;;;;;4.31;85.71;99617.20;4186319;82;21536;-81
2021/10/16 21:55:49;;;;;;;94.47;43.45;;;;;;;4.13;84.74;99606.94;4188335;82;22083;-81
2021/10/16 22:01:50;;;;;;;91.60;41.55;;;;;;;4.09;85.12;99617.34;4182998;82;21057;-81
2021/10/16 22:07:52;;;;;;;82.47;41.75;;;;;;;3.86;84.71;99614.53;4183157;82;21032;-81
2021/10/16 22:13:53;;;;;;;79.95;38.15;;;;;;;3.89;85.44;99618.77;4179474;82;21840;-80
2021/10/16 22:19:55;;;;;;;80.87;38.23;;;;;;;3.80;85.76;99607.13;4181780;82;21127;-80
2021/10/16 22:25:56;;;;;;;83.33;38.42;;;;;;;3.63;85.78;99611.14;4100988;83;21080;-81
